Terminal Aerodrome Forecast
Issued by NWS

Home | Current Version | Previous Version | Text Only | Print | Product List | Glossary On
Versions: 1 2 3 4 5 6 7 8 9 10 11 12 13 14 15 16 17 18
000
FTAK31 PAJN 261723
TAFAJN
TAF
PAJN 261723Z 2618/2718 10015KT 6SM -RA BR SCT006 OVC030
      WS020/13035KT
     FM262000 12015KT 5SM -RA BR FEW010 BKN025 OVC040
     FM271000 12015G25KT 3SM RA BR BKN015 OVC030=

USA.gov is the U.S. government's official web portal to all federal, state and local government web resources and services.